sensor_id;sensor_type;location;lat;lon;timestamp;temperature;humidity
64549;DHT22;49838;51.798;10.954;2024-02-23T00:00:08;15.30;45.80
64549;DHT22;49838;51.798;10.954;2024-02-23T00:02:36;15.20;45.90
64549;DHT22;49838;51.798;10.954;2024-02-23T00:05:04;15.10;45.40
64549;DHT22;49838;51.798;10.954;2024-02-23T00:07:33;15.10;45.40
64549;DHT22;49838;51.798;10.954;2024-02-23T00:10:00;15.10;45.30
64549;DHT22;49838;51.798;10.954;2024-02-23T00:12:28;15.00;45.30
64549;DHT22;49838;51.798;10.954;2024-02-23T00:14:55;14.90;44.80
64549;DHT22;49838;51.798;10.954;2024-02-23T00:17:22;14.90;44.90
64549;DHT22;49838;51.798;10.954;2024-02-23T00:19:50;14.80;44.90
64549;DHT22;49838;51.798;10.954;2024-02-23T00:22:18;14.90;44.90
64549;DHT22;49838;51.798;10.954;2024-02-23T00:24:47;14.80;44.50
64549;DHT22;49838;51.798;10.954;2024-02-23T00:27:14;14.80;44.60
64549;DHT22;49838;51.798;10.954;2024-02-23T00:29:41;14.70;44.70
64549;DHT22;49838;51.798;10.954;2024-02-23T00:32:08;14.70;44.50
64549;DHT22;49838;51.798;10.954;2024-02-23T00:34:36;14.60;44.50
64549;DHT22;49838;51.798;10.954;2024-02-23T00:37:04;14.60;44.40
64549;DHT22;49838;51.798;10.954;2024-02-23T00:39:31;14.60;44.50
64549;DHT22;49838;51.798;10.954;2024-02-23T00:42:00;14.60;44.60
64549;DHT22;49838;51.798;10.954;2024-02-23T00:44:27;14.50;44.60
64549;DHT22;49838;51.798;10.954;2024-02-23T00:46:54;14.50;44.60
64549;DHT22;49838;51.798;10.954;2024-02-23T00:49:23;14.50;45.10
64549;DHT22;49838;51.798;10.954;2024-02-23T00:51:50;14.50;44.60
64549;DHT22;49838;51.798;10.954;2024-02-23T00:54:18;14.40;44.50
64549;DHT22;49838;51.798;10.954;2024-02-23T00:56:45;14.40;44.50
64549;DHT22;49838;51.798;10.954;2024-02-23T00:59:13;14.40;44.50
64549;DHT22;49838;51.798;10.954;2024-02-23T01:01:41;14.30;44.40
64549;DHT22;49838;51.798;10.954;2024-02-23T01:04:08;14.30;44.30
64549;DHT22;49838;51.798;10.954;2024-02-23T01:06:35;14.30;44.40
64549;DHT22;49838;51.798;10.954;2024-02-23T01:09:02;14.30;44.40
64549;DHT22;49838;51.798;10.954;2024-02-23T01:11:30;14.20;44.40
64549;DHT22;49838;51.798;10.954;2024-02-23T01:13:58;14.20;44.10
64549;DHT22;49838;51.798;10.954;2024-02-23T01:16:26;14.20;44.30
64549;DHT22;49838;51.798;10.954;2024-02-23T01:18:54;14.20;44.30
64549;DHT22;49838;51.798;10.954;2024-02-23T01:21:21;14.20;44.20
64549;DHT22;49838;51.798;10.954;2024-02-23T01:23:48;14.20;43.90
64549;DHT22;49838;51.798;10.954;2024-02-23T01:26:15;14.20;43.90
64549;DHT22;49838;51.798;10.954;2024-02-23T01:28:42;14.20;43.90
64549;DHT22;49838;51.798;10.954;2024-02-23T01:31:11;14.20;43.50
64549;DHT22;49838;51.798;10.954;2024-02-23T01:33:40;14.30;43.60
64549;DHT22;49838;51.798;10.954;2024-02-23T01:36:07;14.30;43.70
64549;DHT22;49838;51.798;10.954;2024-02-23T01:38:35;14.40;43.80
64549;DHT22;49838;51.798;10.954;2024-02-23T01:41:03;14.40;43.80
64549;DHT22;49838;51.798;10.954;2024-02-23T01:43:31;14.50;43.70
64549;DHT22;49838;51.798;10.954;2024-02-23T01:45:58;14.50;43.70
64549;DHT22;49838;51.798;10.954;2024-02-23T01:48:25;14.50;43.50
64549;DHT22;49838;51.798;10.954;2024-02-23T01:50:54;14.50;43.20
64549;DHT22;49838;51.798;10.954;2024-02-23T01:53:22;14.40;43.50
64549;DHT22;49838;51.798;10.954;2024-02-23T01:55:51;14.50;43.50
64549;DHT22;49838;51.798;10.954;2024-02-23T01:58:20;14.40;43.50
64549;DHT22;49838;51.798;10.954;2024-02-23T02:00:48;14.30;43.60
64549;DHT22;49838;51.798;10.954;2024-02-23T02:03:15;14.10;43.70
64549;DHT22;49838;51.798;10.954;2024-02-23T02:05:43;14.00;44.00
64549;DHT22;49838;51.798;10.954;2024-02-23T02:08:12;14.00;43.90
64549;DHT22;49838;51.798;10.954;2024-02-23T02:10:39;14.00;43.80
64549;DHT22;49838;51.798;10.954;2024-02-23T02:13:08;13.90;43.50
64549;DHT22;49838;51.798;10.954;2024-02-23T02:15:35;13.90;42.80
64549;DHT22;49838;51.798;10.954;2024-02-23T02:18:04;13.80;42.60
64549;DHT22;49838;51.798;10.954;2024-02-23T02:20:32;13.80;42.30
64549;DHT22;49838;51.798;10.954;2024-02-23T02:23:00;13.80;42.40
64549;DHT22;49838;51.798;10.954;2024-02-23T02:25:28;13.70;42.30
64549;DHT22;49838;51.798;10.954;2024-02-23T02:27:56;13.60;42.40
64549;DHT22;49838;51.798;10.954;2024-02-23T02:30:23;13.60;42.00
64549;DHT22;49838;51.798;10.954;2024-02-23T02:32:50;13.60;42.00
64549;DHT22;49838;51.798;10.954;2024-02-23T02:35:17;13.50;41.70
64549;DHT22;49838;51.798;10.954;2024-02-23T02:37:44;13.50;41.90
64549;DHT22;49838;51.798;10.954;2024-02-23T02:40:12;13.40;41.50
64549;DHT22;49838;51.798;10.954;2024-02-23T02:42:40;13.30;41.60
64549;DHT22;49838;51.798;10.954;2024-02-23T02:45:08;13.30;41.40
64549;DHT22;49838;51.798;10.954;2024-02-23T02:47:35;13.30;41.30
64549;DHT22;49838;51.798;10.954;2024-02-23T02:50:02;13.30;41.40
64549;DHT22;49838;51.798;10.954;2024-02-23T02:52:32;13.30;41.60
64549;DHT22;49838;51.798;10.954;2024-02-23T02:54:59;13.20;41.40
64549;DHT22;49838;51.798;10.954;2024-02-23T02:57:26;13.10;41.60
64549;DHT22;49838;51.798;10.954;2024-02-23T02:59:55;13.10;41.70
64549;DHT22;49838;51.798;10.954;2024-02-23T03:02:22;13.00;41.70
64549;DHT22;49838;51.798;10.954;2024-02-23T03:04:50;13.00;41.70
64549;DHT22;49838;51.798;10.954;2024-02-23T03:07:17;13.00;41.90
64549;DHT22;49838;51.798;10.954;2024-02-23T03:09:45;13.00;41.60
64549;DHT22;49838;51.798;10.954;2024-02-23T03:12:12;13.00;41.60
64549;DHT22;49838;51.798;10.954;2024-02-23T03:14:39;12.90;41.80
64549;DHT22;49838;51.798;10.954;2024-02-23T03:17:08;13.00;42.00
64549;DHT22;49838;51.798;10.954;2024-02-23T03:19:35;12.80;41.90
64549;DHT22;49838;51.798;10.954;2024-02-23T03:22:03;12.80;41.90
64549;DHT22;49838;51.798;10.954;2024-02-23T03:24:30;12.80;42.10
64549;DHT22;49838;51.798;10.954;2024-02-23T03:26:57;12.70;42.00
64549;DHT22;49838;51.798;10.954;2024-02-23T03:29:24;12.70;42.10
64549;DHT22;49838;51.798;10.954;2024-02-23T03:31:55;12.60;42.10
64549;DHT22;49838;51.798;10.954;2024-02-23T03:34:23;12.70;42.20
64549;DHT22;49838;51.798;10.954;2024-02-23T03:36:51;12.70;42.20
64549;DHT22;49838;51.798;10.954;2024-02-23T03:39:18;12.70;42.10
64549;DHT22;49838;51.798;10.954;2024-02-23T03:41:45;12.60;42.00
64549;DHT22;49838;51.798;10.954;2024-02-23T03:44:13;12.60;42.20
64549;DHT22;49838;51.798;10.954;2024-02-23T03:46:40;12.50;42.40
64549;DHT22;49838;51.798;10.954;2024-02-23T03:49:07;12.40;42.40
64549;DHT22;49838;51.798;10.954;2024-02-23T03:51:36;12.30;42.60
64549;DHT22;49838;51.798;10.954;2024-02-23T03:54:05;12.20;42.70
64549;DHT22;49838;51.798;10.954;2024-02-23T03:56:37;12.10;42.80
64549;DHT22;49838;51.798;10.954;2024-02-23T03:59:05;12.10;42.80
64549;DHT22;49838;51.798;10.954;2024-02-23T04:01:35;12.10;42.80
64549;DHT22;49838;51.798;10.954;2024-02-23T04:04:03;12.00;42.70
64549;DHT22;49838;51.798;10.954;2024-02-23T04:06:31;12.00;42.80
64549;DHT22;49838;51.798;10.954;2024-02-23T04:08:59;12.00;42.80
64549;DHT22;49838;51.798;10.954;2024-02-23T04:11:26;12.00;42.70
64549;DHT22;49838;51.798;10.954;2024-02-23T04:13:54;11.90;42.70
64549;DHT22;49838;51.798;10.954;2024-02-23T04:16:24;11.80;42.80
64549;DHT22;49838;51.798;10.954;2024-02-23T04:18:52;11.70;42.80
64549;DHT22;49838;51.798;10.954;2024-02-23T04:21:19;11.70;42.80
64549;DHT22;49838;51.798;10.954;2024-02-23T04:23:47;11.60;42.80
64549;DHT22;49838;51.798;10.954;2024-02-23T04:26:16;11.60;42.90
64549;DHT22;49838;51.798;10.954;2024-02-23T04:28:43;11.60;43.00
64549;DHT22;49838;51.798;10.954;2024-02-23T04:31:10;11.60;43.00
64549;DHT22;49838;51.798;10.954;2024-02-23T04:33:37;11.50;43.10
64549;DHT22;49838;51.798;10.954;2024-02-23T04:36:05;11.40;43.10
64549;DHT22;49838;51.798;10.954;2024-02-23T04:38:33;11.40;43.20
64549;DHT22;49838;51.798;10.954;2024-02-23T04:41:02;11.30;43.10
64549;DHT22;49838;51.798;10.954;2024-02-23T04:43:32;11.30;43.20
64549;DHT22;49838;51.798;10.954;2024-02-23T04:45:59;11.20;43.80
64549;DHT22;49838;51.798;10.954;2024-02-23T04:48:26;11.20;43.20
64549;DHT22;49838;51.798;10.954;2024-02-23T04:50:56;11.20;43.10
64549;DHT22;49838;51.798;10.954;2024-02-23T04:53:24;11.20;43.20
64549;DHT22;49838;51.798;10.954;2024-02-23T04:55:51;11.20;43.10
64549;DHT22;49838;51.798;10.954;2024-02-23T04:58:18;11.20;43.10
64549;DHT22;49838;51.798;10.954;2024-02-23T05:00:48;11.20;43.10
64549;DHT22;49838;51.798;10.954;2024-02-23T05:03:15;11.20;43.30
64549;DHT22;49838;51.798;10.954;2024-02-23T05:05:42;11.10;43.00
64549;DHT22;49838;51.798;10.954;2024-02-23T05:08:09;11.20;43.20
64549;DHT22;49838;51.798;10.954;2024-02-23T05:10:37;11.20;43.10
64549;DHT22;49838;51.798;10.954;2024-02-23T05:13:04;11.20;43.10
64549;DHT22;49838;51.798;10.954;2024-02-23T05:15:31;11.20;43.10
64549;DHT22;49838;51.798;10.954;2024-02-23T05:18:00;11.10;43.10
64549;DHT22;49838;51.798;10.954;2024-02-23T05:20:27;11.20;43.20
64549;DHT22;49838;51.798;10.954;2024-02-23T05:22:55;11.10;43.00
64549;DHT22;49838;51.798;10.954;2024-02-23T05:25:22;11.10;43.00
64549;DHT22;49838;51.798;10.954;2024-02-23T05:27:51;11.10;43.10
64549;DHT22;49838;51.798;10.954;2024-02-23T05:30:18;11.10;43.00
64549;DHT22;49838;51.798;10.954;2024-02-23T05:32:47;11.10;43.00
64549;DHT22;49838;51.798;10.954;2024-02-23T05:35:15;11.00;42.90
64549;DHT22;49838;51.798;10.954;2024-02-23T05:37:43;11.00;43.00
64549;DHT22;49838;51.798;10.954;2024-02-23T05:40:10;11.00;42.90
64549;DHT22;49838;51.798;10.954;2024-02-23T05:42:38;11.00;42.90
64549;DHT22;49838;51.798;10.954;2024-02-23T05:45:06;11.00;42.80
64549;DHT22;49838;51.798;10.954;2024-02-23T05:47:36;11.00;42.70
64549;DHT22;49838;51.798;10.954;2024-02-23T05:50:04;11.00;42.70
64549;DHT22;49838;51.798;10.954;2024-02-23T05:52:33;11.00;42.60
64549;DHT22;49838;51.798;10.954;2024-02-23T05:55:01;11.00;42.50
64549;DHT22;49838;51.798;10.954;2024-02-23T05:57:29;11.00;42.50
64549;DHT22;49838;51.798;10.954;2024-02-23T05:59:57;11.00;42.40
64549;DHT22;49838;51.798;10.954;2024-02-23T06:02:24;10.90;42.40
64549;DHT22;49838;51.798;10.954;2024-02-23T06:04:52;11.00;42.40
64549;DHT22;49838;51.798;10.954;2024-02-23T06:07:19;10.90;42.30
64549;DHT22;49838;51.798;10.954;2024-02-23T06:09:54;10.90;42.30
64549;DHT22;49838;51.798;10.954;2024-02-23T06:12:21;10.90;42.30
64549;DHT22;49838;51.798;10.954;2024-02-23T06:14:49;11.00;42.30
64549;DHT22;49838;51.798;10.954;2024-02-23T06:17:17;10.90;42.30
64549;DHT22;49838;51.798;10.954;2024-02-23T06:19:45;10.90;42.30
64549;DHT22;49838;51.798;10.954;2024-02-23T06:22:12;10.90;42.20
64549;DHT22;49838;51.798;10.954;2024-02-23T06:24:40;11.00;42.30
64549;DHT22;49838;51.798;10.954;2024-02-23T06:27:09;11.00;42.30
64549;DHT22;49838;51.798;10.954;2024-02-23T06:29:36;11.00;42.30
64549;DHT22;49838;51.798;10.954;2024-02-23T06:32:06;11.00;42.30
64549;DHT22;49838;51.798;10.954;2024-02-23T06:34:33;11.00;42.20
64549;DHT22;49838;51.798;10.954;2024-02-23T06:37:01;11.00;42.30
64549;DHT22;49838;51.798;10.954;2024-02-23T06:39:29;11.00;42.30
64549;DHT22;49838;51.798;10.954;2024-02-23T06:41:56;11.00;42.20
64549;DHT22;49838;51.798;10.954;2024-02-23T06:44:27;11.00;42.20
64549;DHT22;49838;51.798;10.954;2024-02-23T06:46:55;11.00;42.20
64549;DHT22;49838;51.798;10.954;2024-02-23T06:49:22;11.00;42.30
64549;DHT22;49838;51.798;10.954;2024-02-23T06:51:49;11.00;42.10
64549;DHT22;49838;51.798;10.954;2024-02-23T06:54:16;11.10;42.30
64549;DHT22;49838;51.798;10.954;2024-02-23T06:56:44;11.10;42.30
64549;DHT22;49838;51.798;10.954;2024-02-23T06:59:11;11.10;42.20
64549;DHT22;49838;51.798;10.954;2024-02-23T07:01:48;11.10;42.20
64549;DHT22;49838;51.798;10.954;2024-02-23T07:04:16;11.20;42.20
64549;DHT22;49838;51.798;10.954;2024-02-23T07:06:43;11.30;42.30
64549;DHT22;49838;51.798;10.954;2024-02-23T07:09:11;11.60;42.40
64549;DHT22;49838;51.798;10.954;2024-02-23T07:11:38;11.90;42.30
64549;DHT22;49838;51.798;10.954;2024-02-23T07:14:07;11.90;42.20
64549;DHT22;49838;51.798;10.954;2024-02-23T07:16:37;12.10;42.50
64549;DHT22;49838;51.798;10.954;2024-02-23T07:19:06;12.40;42.60
64549;DHT22;49838;51.798;10.954;2024-02-23T07:21:34;12.90;42.90
64549;DHT22;49838;51.798;10.954;2024-02-23T07:24:01;13.20;42.80
64549;DHT22;49838;51.798;10.954;2024-02-23T07:26:28;13.30;41.80
64549;DHT22;49838;51.798;10.954;2024-02-23T07:28:56;13.30;42.10
64549;DHT22;49838;51.798;10.954;2024-02-23T07:31:23;13.30;42.00
64549;DHT22;49838;51.798;10.954;2024-02-23T07:33:50;13.20;42.00
64549;DHT22;49838;51.798;10.954;2024-02-23T07:36:19;13.20;42.20
64549;DHT22;49838;51.798;10.954;2024-02-23T07:38:46;13.20;42.20
64549;DHT22;49838;51.798;10.954;2024-02-23T07:41:14;13.20;41.90
64549;DHT22;49838;51.798;10.954;2024-02-23T07:43:43;13.10;42.00
64549;DHT22;49838;51.798;10.954;2024-02-23T07:46:11;13.10;42.00
64549;DHT22;49838;51.798;10.954;2024-02-23T07:48:39;13.10;42.00
64549;DHT22;49838;51.798;10.954;2024-02-23T07:51:06;13.10;41.70
64549;DHT22;49838;51.798;10.954;2024-02-23T07:53:35;13.10;41.70
64549;DHT22;49838;51.798;10.954;2024-02-23T07:56:02;13.10;41.90
64549;DHT22;49838;51.798;10.954;2024-02-23T07:58:30;13.20;42.00
64549;DHT22;49838;51.798;10.954;2024-02-23T08:00:57;13.20;41.80
64549;DHT22;49838;51.798;10.954;2024-02-23T08:03:24;13.30;41.70
64549;DHT22;49838;51.798;10.954;2024-02-23T08:05:52;13.50;41.70
64549;DHT22;49838;51.798;10.954;2024-02-23T08:08:19;13.80;41.40
64549;DHT22;49838;51.798;10.954;2024-02-23T08:10:49;14.30;41.90
64549;DHT22;49838;51.798;10.954;2024-02-23T08:13:17;14.80;42.50
64549;DHT22;49838;51.798;10.954;2024-02-23T08:15:44;15.40;43.10
64549;DHT22;49838;51.798;10.954;2024-02-23T08:18:12;16.00;43.50
64549;DHT22;49838;51.798;10.954;2024-02-23T08:20:39;16.50;44.10
64549;DHT22;49838;51.798;10.954;2024-02-23T08:23:06;17.10;44.60
64549;DHT22;49838;51.798;10.954;2024-02-23T08:25:35;17.70;44.70
64549;DHT22;49838;51.798;10.954;2024-02-23T08:28:05;18.10;44.00
64549;DHT22;49838;51.798;10.954;2024-02-23T08:30:33;18.40;43.70
64549;DHT22;49838;51.798;10.954;2024-02-23T08:33:00;18.90;44.00
64549;DHT22;49838;51.798;10.954;2024-02-23T08:35:27;19.40;43.90
64549;DHT22;49838;51.798;10.954;2024-02-23T08:37:54;20.00;45.10
64549;DHT22;49838;51.798;10.954;2024-02-23T08:40:22;20.70;45.30
64549;DHT22;49838;51.798;10.954;2024-02-23T08:42:49;21.40;45.50
64549;DHT22;49838;51.798;10.954;2024-02-23T08:45:19;22.00;44.90
64549;DHT22;49838;51.798;10.954;2024-02-23T08:47:46;22.40;44.70
64549;DHT22;49838;51.798;10.954;2024-02-23T08:50:13;22.60;42.90
64549;DHT22;49838;51.798;10.954;2024-02-23T08:52:41;22.80;42.60
64549;DHT22;49838;51.798;10.954;2024-02-23T08:55:08;23.00;43.10
64549;DHT22;49838;51.798;10.954;2024-02-23T08:57:37;23.10;42.20
64549;DHT22;49838;51.798;10.954;2024-02-23T09:00:05;23.20;41.90
64549;DHT22;49838;51.798;10.954;2024-02-23T09:02:34;22.90;41.30
64549;DHT22;49838;51.798;10.954;2024-02-23T09:05:04;22.50;39.80
64549;DHT22;49838;51.798;10.954;2024-02-23T09:07:32;22.10;40.40
64549;DHT22;49838;51.798;10.954;2024-02-23T09:09:59;21.60;38.30
64549;DHT22;49838;51.798;10.954;2024-02-23T09:12:26;21.10;39.20
64549;DHT22;49838;51.798;10.954;2024-02-23T09:14:53;21.00;39.90
64549;DHT22;49838;51.798;10.954;2024-02-23T09:17:21;20.80;39.80
64549;DHT22;49838;51.798;10.954;2024-02-23T09:19:50;20.70;39.10
64549;DHT22;49838;51.798;10.954;2024-02-23T09:22:17;20.50;37.90
64549;DHT22;49838;51.798;10.954;2024-02-23T09:24:45;20.10;38.70
64549;DHT22;49838;51.798;10.954;2024-02-23T09:27:12;19.70;38.20
64549;DHT22;49838;51.798;10.954;2024-02-23T09:29:40;19.30;38.50
64549;DHT22;49838;51.798;10.954;2024-02-23T09:32:07;19.30;38.80
64549;DHT22;49838;51.798;10.954;2024-02-23T09:34:34;19.20;38.40
64549;DHT22;49838;51.798;10.954;2024-02-23T09:37:03;19.30;38.80
64549;DHT22;49838;51.798;10.954;2024-02-23T09:39:30;19.60;39.20
64549;DHT22;49838;51.798;10.954;2024-02-23T09:41:57;20.00;39.90
64549;DHT22;49838;51.798;10.954;2024-02-23T09:44:26;20.50;40.80
64549;DHT22;49838;51.798;10.954;2024-02-23T09:46:59;20.90;41.10
64549;DHT22;49838;51.798;10.954;2024-02-23T09:49:27;21.20;40.40
64549;DHT22;49838;51.798;10.954;2024-02-23T09:51:55;21.40;40.20
64549;DHT22;49838;51.798;10.954;2024-02-23T09:54:23;21.50;39.10
64549;DHT22;49838;51.798;10.954;2024-02-23T09:56:51;21.50;39.50
64549;DHT22;49838;51.798;10.954;2024-02-23T09:59:18;21.70;40.20
64549;DHT22;49838;51.798;10.954;2024-02-23T10:01:46;22.00;40.20
64549;DHT22;49838;51.798;10.954;2024-02-23T10:04:14;22.30;40.40
64549;DHT22;49838;51.798;10.954;2024-02-23T10:06:43;22.60;40.50
64549;DHT22;49838;51.798;10.954;2024-02-23T10:09:11;23.00;40.20
64549;DHT22;49838;51.798;10.954;2024-02-23T10:11:40;23.50;40.90
64549;DHT22;49838;51.798;10.954;2024-02-23T10:14:07;23.90;40.50
64549;DHT22;49838;51.798;10.954;2024-02-23T10:16:35;24.40;40.90
64549;DHT22;49838;51.798;10.954;2024-02-23T10:19:02;24.80;41.60
64549;DHT22;49838;51.798;10.954;2024-02-23T10:21:29;25.20;41.40
64549;DHT22;49838;51.798;10.954;2024-02-23T10:23:56;25.30;39.70
64549;DHT22;49838;51.798;10.954;2024-02-23T10:26:24;25.30;37.70
64549;DHT22;49838;51.798;10.954;2024-02-23T10:28:53;25.30;38.60
64549;DHT22;49838;51.798;10.954;2024-02-23T10:31:21;25.30;37.70
64549;DHT22;49838;51.798;10.954;2024-02-23T10:33:52;25.30;38.10
64549;DHT22;49838;51.798;10.954;2024-02-23T10:36:21;25.50;38.20
64549;DHT22;49838;51.798;10.954;2024-02-23T10:38:51;25.50;37.80
64549;DHT22;49838;51.798;10.954;2024-02-23T10:41:21;25.70;38.90
64549;DHT22;49838;51.798;10.954;2024-02-23T10:43:49;26.00;39.70
64549;DHT22;49838;51.798;10.954;2024-02-23T10:46:18;26.40;38.90
64549;DHT22;49838;51.798;10.954;2024-02-23T10:48:47;26.50;38.40
64549;DHT22;49838;51.798;10.954;2024-02-23T10:51:16;26.60;38.30
64549;DHT22;49838;51.798;10.954;2024-02-23T10:53:44;26.80;34.60
64549;DHT22;49838;51.798;10.954;2024-02-23T10:56:13;26.90;34.80
64549;DHT22;49838;51.798;10.954;2024-02-23T10:58:40;27.20;37.30
64549;DHT22;49838;51.798;10.954;2024-02-23T11:01:08;27.50;38.00
64549;DHT22;49838;51.798;10.954;2024-02-23T11:03:38;27.80;38.50
64549;DHT22;49838;51.798;10.954;2024-02-23T11:06:10;28.10;39.00
64549;DHT22;49838;51.798;10.954;2024-02-23T11:08:38;28.30;39.20
64549;DHT22;49838;51.798;10.954;2024-02-23T11:11:09;28.40;38.20
64549;DHT22;49838;51.798;10.954;2024-02-23T11:13:37;28.10;37.40
64549;DHT22;49838;51.798;10.954;2024-02-23T11:16:06;27.80;36.80
64549;DHT22;49838;51.798;10.954;2024-02-23T11:18:35;27.60;36.90
64549;DHT22;49838;51.798;10.954;2024-02-23T11:21:05;27.50;37.00
64549;DHT22;49838;51.798;10.954;2024-02-23T11:23:39;27.50;37.00
64549;DHT22;49838;51.798;10.954;2024-02-23T11:26:09;27.60;36.10
64549;DHT22;49838;51.798;10.954;2024-02-23T11:28:43;27.60;37.10
64549;DHT22;49838;51.798;10.954;2024-02-23T11:31:14;27.80;36.70
64549;DHT22;49838;51.798;10.954;2024-02-23T11:33:47;27.90;35.50
64549;DHT22;49838;51.798;10.954;2024-02-23T11:36:23;28.00;35.40
64549;DHT22;49838;51.798;10.954;2024-02-23T11:38:54;28.10;35.20
64549;DHT22;49838;51.798;10.954;2024-02-23T11:41:24;28.20;35.80
64549;DHT22;49838;51.798;10.954;2024-02-23T11:43:52;28.20;35.20
64549;DHT22;49838;51.798;10.954;2024-02-23T11:46:21;28.20;33.50
64549;DHT22;49838;51.798;10.954;2024-02-23T11:48:49;27.80;33.20
64549;DHT22;49838;51.798;10.954;2024-02-23T11:51:20;27.40;34.60
64549;DHT22;49838;51.798;10.954;2024-02-23T11:53:49;27.10;34.60
64549;DHT22;49838;51.798;10.954;2024-02-23T11:56:18;26.60;33.40
64549;DHT22;49838;51.798;10.954;2024-02-23T11:58:46;26.10;32.90
64549;DHT22;49838;51.798;10.954;2024-02-23T12:01:13;25.50;32.50
64549;DHT22;49838;51.798;10.954;2024-02-23T12:03:41;25.00;33.10
64549;DHT22;49838;51.798;10.954;2024-02-23T12:06:10;24.50;32.70
64549;DHT22;49838;51.798;10.954;2024-02-23T12:08:37;24.00;33.40
64549;DHT22;49838;51.798;10.954;2024-02-23T12:11:07;23.70;33.90
64549;DHT22;49838;51.798;10.954;2024-02-23T12:13:35;23.60;33.40
64549;DHT22;49838;51.798;10.954;2024-02-23T12:16:03;23.30;33.70
64549;DHT22;49838;51.798;10.954;2024-02-23T12:18:32;23.20;34.00
64549;DHT22;49838;51.798;10.954;2024-02-23T12:21:00;23.10;34.00
64549;DHT22;49838;51.798;10.954;2024-02-23T12:23:37;22.90;33.80
64549;DHT22;49838;51.798;10.954;2024-02-23T12:26:06;22.70;33.00
64549;DHT22;49838;51.798;10.954;2024-02-23T12:28:34;22.40;33.10
64549;DHT22;49838;51.798;10.954;2024-02-23T12:31:02;22.30;33.70
64549;DHT22;49838;51.798;10.954;2024-02-23T12:33:31;22.00;33.20
64549;DHT22;49838;51.798;10.954;2024-02-23T12:36:00;21.70;32.40
64549;DHT22;49838;51.798;10.954;2024-02-23T12:38:28;21.30;32.60
64549;DHT22;49838;51.798;10.954;2024-02-23T12:40:55;21.10;32.90
64549;DHT22;49838;51.798;10.954;2024-02-23T12:43:25;20.80;33.60
64549;DHT22;49838;51.798;10.954;2024-02-23T12:45:52;20.70;32.90
64549;DHT22;49838;51.798;10.954;2024-02-23T12:48:21;20.50;33.10
64549;DHT22;49838;51.798;10.954;2024-02-23T12:50:49;20.20;33.00
64549;DHT22;49838;51.798;10.954;2024-02-23T12:53:30;20.00;32.70
64549;DHT22;49838;51.798;10.954;2024-02-23T12:55:58;19.90;33.20
64549;DHT22;49838;51.798;10.954;2024-02-23T12:58:27;19.70;32.50
64549;DHT22;49838;51.798;10.954;2024-02-23T13:00:55;19.40;32.70
64549;DHT22;49838;51.798;10.954;2024-02-23T13:03:23;19.20;33.10
64549;DHT22;49838;51.798;10.954;2024-02-23T13:05:51;19.30;33.20
64549;DHT22;49838;51.798;10.954;2024-02-23T13:08:18;19.20;33.40
64549;DHT22;49838;51.798;10.954;2024-02-23T13:10:45;19.20;33.70
64549;DHT22;49838;51.798;10.954;2024-02-23T13:13:13;19.10;33.50
64549;DHT22;49838;51.798;10.954;2024-02-23T13:15:42;19.00;33.40
64549;DHT22;49838;51.798;10.954;2024-02-23T13:18:09;18.90;33.40
64549;DHT22;49838;51.798;10.954;2024-02-23T13:20:36;18.80;32.80
64549;DHT22;49838;51.798;10.954;2024-02-23T13:23:04;18.60;33.20
64549;DHT22;49838;51.798;10.954;2024-02-23T13:25:33;18.50;33.50
64549;DHT22;49838;51.798;10.954;2024-02-23T13:28:00;18.50;33.40
64549;DHT22;49838;51.798;10.954;2024-02-23T13:30:27;18.40;33.70
64549;DHT22;49838;51.798;10.954;2024-02-23T13:32:56;18.20;33.50
64549;DHT22;49838;51.798;10.954;2024-02-23T13:35:23;18.00;33.20
64549;DHT22;49838;51.798;10.954;2024-02-23T13:37:51;17.90;33.10
64549;DHT22;49838;51.798;10.954;2024-02-23T13:40:18;17.70;32.80
64549;DHT22;49838;51.798;10.954;2024-02-23T13:42:45;17.60;33.70
64549;DHT22;49838;51.798;10.954;2024-02-23T13:45:15;17.50;33.50
64549;DHT22;49838;51.798;10.954;2024-02-23T13:47:43;17.50;33.60
64549;DHT22;49838;51.798;10.954;2024-02-23T13:50:25;17.30;33.30
64549;DHT22;49838;51.798;10.954;2024-02-23T13:52:53;17.10;33.30
64549;DHT22;49838;51.798;10.954;2024-02-23T13:55:20;17.10;33.40
64549;DHT22;49838;51.798;10.954;2024-02-23T13:57:47;17.00;33.30
64549;DHT22;49838;51.798;10.954;2024-02-23T14:00:15;16.90;33.40
64549;DHT22;49838;51.798;10.954;2024-02-23T14:02:43;16.80;33.50
64549;DHT22;49838;51.798;10.954;2024-02-23T14:05:12;16.90;33.50
64549;DHT22;49838;51.798;10.954;2024-02-23T14:07:40;16.90;33.60
64549;DHT22;49838;51.798;10.954;2024-02-23T14:10:08;16.90;33.40
64549;DHT22;49838;51.798;10.954;2024-02-23T14:12:36;16.70;32.70
64549;DHT22;49838;51.798;10.954;2024-02-23T14:15:03;16.60;33.10
64549;DHT22;49838;51.798;10.954;2024-02-23T14:17:31;16.60;33.30
64549;DHT22;49838;51.798;10.954;2024-02-23T14:20:00;16.50;33.10
64549;DHT22;49838;51.798;10.954;2024-02-23T14:22:30;16.50;33.30
64549;DHT22;49838;51.798;10.954;2024-02-23T14:24:57;16.60;33.50
64549;DHT22;49838;51.798;10.954;2024-02-23T14:27:25;16.60;33.60
64549;DHT22;49838;51.798;10.954;2024-02-23T14:29:53;16.70;33.60
64549;DHT22;49838;51.798;10.954;2024-02-23T14:32:21;16.70;33.30
64549;DHT22;49838;51.798;10.954;2024-02-23T14:34:48;16.60;33.00
64549;DHT22;49838;51.798;10.954;2024-02-23T14:37:15;16.60;33.40
64549;DHT22;49838;51.798;10.954;2024-02-23T14:39:44;16.60;33.60
64549;DHT22;49838;51.798;10.954;2024-02-23T14:42:11;16.60;33.50
64549;DHT22;49838;51.798;10.954;2024-02-23T14:44:39;16.50;33.40
64549;DHT22;49838;51.798;10.954;2024-02-23T14:47:06;16.50;33.40
64549;DHT22;49838;51.798;10.954;2024-02-23T14:49:33;16.50;33.20
64549;DHT22;49838;51.798;10.954;2024-02-23T14:52:00;16.40;33.90
64549;DHT22;49838;51.798;10.954;2024-02-23T14:54:28;16.40;33.30
64549;DHT22;49838;51.798;10.954;2024-02-23T14:56:57;16.50;33.40
64549;DHT22;49838;51.798;10.954;2024-02-23T14:59:24;16.40;32.90
64549;DHT22;49838;51.798;10.954;2024-02-23T15:01:51;16.40;33.20
64549;DHT22;49838;51.798;10.954;2024-02-23T15:04:19;16.40;33.30
64549;DHT22;49838;51.798;10.954;2024-02-23T15:06:46;16.40;33.40
64549;DHT22;49838;51.798;10.954;2024-02-23T15:09:13;16.30;33.40
64549;DHT22;49838;51.798;10.954;2024-02-23T15:11:40;16.20;33.40
64549;DHT22;49838;51.798;10.954;2024-02-23T15:14:09;16.20;33.30
64549;DHT22;49838;51.798;10.954;2024-02-23T15:16:36;16.20;33.40
64549;DHT22;49838;51.798;10.954;2024-02-23T15:19:04;16.10;33.50